Craig, MO

12:01 PM CDT on October 15, 2019 (GMT -0500)
Golden Triangle Energy | | Change Station
Active Advisory: Flood Warning

Elev 869 ft 40.19 °N, 95.37 °W | Updated 2 seconds ago

Clear
Clear
59.5 °F
Feels Like 59.5 °F
N
9
Wind Variable Wind from NW
Gusts 15.0 mph

Today
High -- | Low -- °F
--% Chance of Precip.
Yesterday
High -- | Low -- °F
Precip. -- in
Pressure 30.01 in
Visibility 10.0 miles
Clouds Clear
Dew Point 46 °F
Humidity 61%
Rainfall 0.00 in
Snow Depth Not available.
7:31 AM 6:41 PM
Full, 97% visible
METAR KFNB 151653Z AUTO 33013G27KT 10SM CLR 14/05 A3001 RMK AO2 PK WND 34027/1557 SLP160 T01440050
Pressure 30.01 in
Visibility 10.0 miles
Clouds Clear
Dew Point 46 °F
Humidity 61%
Rainfall 0.00 in
Snow Depth Not available.
7:31 AM 6:41 PM
Full, 97% visible
METAR KFNB 151653Z AUTO 33013G27KT 10SM CLR 14/05 A3001 RMK AO2 PK WND 34027/1557 SLP160 T01440050

Get Your Daily Forecast Email!

Thanks for signing up!

Be on the lookout for a verification email in your inbox.

You'll start receiving severe weather alerts in your inbox..

×

10-Day Weather Forecast

Almanac

Astronomy

Oct. 15, 2019 Rise Set
Actual Time
Civil Twilight
Nautical Twilight
Astronomical Twilight
Moon
Length of Visible Light
Length of Day
Tomorrow will be .
, % of the Moon is Illuminated

Today's Extremes

State Highs State Lows

Community

WunderPhotos

Category 6

Welcome to Category 6. This is the collective home for Weather Underground's featured writeups by Dr. Jeff Masters (right), Bob Henson (left), Chris Burt, and other regular contributors.

Nearby

Air Quality

  Air Quality AQ Index Pollutant
Not available.

Snow Depth

Station Depth Elevation

Earthquake Activity

City Distance Mag. Time & Date
Minimum magnitude displayed is 2.5.

Coastal Water Temperatures

Place Temperature

Stations

Nearby Weather Stations

Station Location Temp. Windchill Dew Point Humidity Wind Precip. Elev Updated Type
                   

Watches & Warnings

Flood Warning
Issued: 9:50 AM CDT Oct. 14, 2019 – National Weather Service

The Flood Warning continues for
the Missouri River at Rulo.
* At 9:30 am Monday the stage was 22.4 feet... or 5.4 feet above
flood stage.
* Flood stage is 17.0 feet.
* Moderate flooding is occurring and moderate flooding is forecast.
* Forecast... river levels will continue to slowly fall, with the
river falling below moderate flood stage by early next week.



Lat... Lon 4026 9563 4026 9544 3991 9501 3982 9503
      3997 9536



Albright